AirNav   TITAN Aviation Fuels
 
 1356 users online  

7CO0 Parkland Airport
Erie, Colorado, USA

GOING TO ERIE?


FAA INFORMATION EFFECTIVE 30 DECEMBER 2021

Location

FAA Identifier: 7CO0
Lat/Long: 40-04-14.4016N 105-01-35.0698W
40-04.240027N 105-01.584497W
40.0706671,-105.0264083
(estimated)
Elevation: 5079 ft. / 1548 m (estimated)
Variation: 12E (1985)
From city: 2 miles NE of ERIE, CO
Time zone: UTC -7 (UTC -6 during Daylight Saving Time)
Zip code: 80516

Airport Operations

Airport use: Private use. Permission required prior to landing
Activation date: 11/1978
Control tower: no
ARTCC: DENVER CENTER
FSS: DENVER FLIGHT SERVICE STATION
Attendance: UNATNDD
Wind indicator: yes
Segmented circle: yes
Lights: ACTVT LIRL RWY 08/26 - CTAF. KEY MIC 5 TIMES SLOWLY.

Airport Communications

CTAF: 122.9
WX AWOS-3 at EIK (4 nm S): 133.825 (303-604-4339)
WX AWOS-3 at LMO (8 nm NW): 120.0 (303-684-7545)
WX AWOS-3 at BDU (9 nm W): 118.825 (303-541-9540)
WX AWOS-3 at BJC (11 nm SW): PHONE 720-887-8067

Nearby radio navigation aids

VOR radial/distance  VOR name  Freq  Var
BJCr018/10.8JEFFCO VOR/DME115.4011E
DVVr292/21.3MILE HIGH VORTAC114.7008E
DENr305/22.9DENVER VOR/DME117.9008E
FQFr310/29.5FALCON VORTAC116.3011E
GLLr207/33.8GILL VOR/DME114.2013E

Airport Services

Runway Information

Runway 8/26

Dimensions: 4200 x 50 ft. / 1280 x 15 m
Surface: asphalt, in good condition
Runway edge lights: low intensity
RUNWAY 8  RUNWAY 26
Latitude: 40-04.263667N40-04.261333N
Longitude: 105-02.003000W105-01.102500W
Elevation: 5042.0 ft.5055.0 ft.
Traffic pattern: rightleft
Displaced threshold: no395 ft.
Markings: numbers only, in good conditionnumbers only, in good condition
Obstructions: 6 ft. fence, 300 ft. from runwaypline, 100 ft. from runway

Runway 17/35

Dimensions: 2000 x 30 ft. / 610 x 9 m
Surface: asphalt/gravel, in fair condition
FST 1400 FT OF RWY 35 IS ASPH AND LAST 500 FT IS GRVL. 100 FT GRVL & TURF S OF RWY 35 THLD USBL FOR TAKEOFF.
RUNWAY 17  RUNWAY 35
Latitude: 40-04.357667N40-04.028000N
Longitude: 105-01.651667W105-01.650667W
Elevation: 5040.0 ft.5079.0 ft.
Traffic pattern: leftleft
Markings: numbers only, in fair conditionnumbers only, in fair condition
Obstructions: pline, 2000 ft. from runwayother, 20 ft. from runway
DITCH.

Airport Ownership and Management from official FAA records

Ownership: Privately-owned
Owner: PARKLAND HOMEOWNERS ASSOC INC
PO BOX 387
ERIE, CO 80516
Phone 303-219-0830
Manager: ROBERT VAN VLEET
1608 DELLA CT
ERIE, CO 80516
Phone 281-299-2838

Airport Operational Statistics

Aircraft based on the field: 47
Single engine airplanes: 42
Multi engine airplanes: 3
Helicopters: 1
Gliders airplanes: 1
    

Additional Remarks

FOR CD CTC DENVER APCH AT 303-342-1916.

Instrument Procedures

There are no published instrument procedures at 7CO0.

Some nearby airports with instrument procedures:

KEIK - Erie Municipal Airport (4 nm S)
KLMO - Vance Brand Airport (8 nm NW)
KBJC - Rocky Mountain Metro Airport (11 nm SW)
KDEN - Denver International Airport (21 nm SE)
KFNL - Northern Colorado Regional Airport (23 nm N)
 
Loc | Ops | Rwys | IFR | FBO | Links
Com | Nav | Svcs | Stats | Notes

AirBoss

 
Area around 7CO0 (Parkland Airport)
 
Road maps at: MapQuest Bing Google
 
Aerial photo
WARNING: Photo may not be current or correct
Aerial photo of 7CO0 (Parkland Airport)
Do you have a better or more recent aerial photo of Parkland Airport that you would like to share? If so, please send us your photo.

 
Sectional chart

 
Airport distance calculator
Flying to Parkland Airport? Find the distance to fly.

From to 7CO0

Sunrise and sunset
Times for 19-Jan-2022
 Local
(UTC-7)
 Zulu
(UTC)
Morning civil twilight06:5013:50
Sunrise07:2014:20
Sunset17:0200:02
Evening civil twilight17:3200:32

Current date and time
Zulu (UTC)  19-Jan-2022 17:07:23
Local (UTC-7)  19-Jan-2022 10:07:23
 
METAR
KEIK 
4nm S 
191655Z AUTO 08007KT 2SM BR OVC005 M05/M05 A3024 RMK AO2 T10501055
KLMO 
8nm NW 
191654Z AUTO 09007KT 1 1/2SM -SN OVC005 M04/M05 A3028 RMK AO2 T10361050
K1V5 
9nm W 
AWOS 118.825 303-541-9540
No observation available
KBDU 
9nm W 
191655Z AUTO 07009KT 2SM UP OVC005 M03/M03 A3023 RMK AO2
KBJC 
10nm SW 
191655Z 06008KT 1SM -FZDZ OVC004 M04/M04 A3021
TAF
KBJC 
10nm SW 
191134Z 1912/2012 08008KT 4SM BR OVC004 TEMPO 1912/1915 1SM -FZDZ BR FM191500 10007KT 4SM -FZDZ BR OVC004 TEMPO 1915/1917 2SM -FZDZ BR FM191900 08007KT 6SM -FZDZSN OVC005 FM192200 10007KT 4SM -SN BR SCT006 OVC010 FM200400 11007KT P6SM VCSH SCT008 OVC012 FM201000 VRB04KT P6SM VCFG SCT004
NOTAMs
Click for the latest NOTAMs
NOTAMs are issued by the DoD/FAA and will open in a separate window not controlled by AirNav.

 

 
 

Would you like to see your business listed on this page?

 If your business provides an interesting product or service to pilots, flight crews, aircraft, or users of the Parkland Airport, you should consider listing it here.  To start the listing process, click on the button below
 
Add a business
 

Other Pages about Parkland Airport

www.ahico.com/...
 
Update a link
 
Copyright © AirNav, LLC. All rights reserved. Privacy Policy  Contact